<?xml version="1.0" encoding="UTF-8" standalone="no" ?>
<gpx xmlns="http://www.topografix.com/GPX/1/1" xmlns:xsi="http://www.w3.org/2001/XMLSchema-instance" xsi:schemaLocation="http://www.topografix.com/GPX/1/1 http://www.topografix.com/GPX/1/1/gpx.xsd" version="1.1" creator="VisuGPX - https://www.visugpx.com">
  <metadata>
    <name>Tracé Equipe D du point E au point I-16182988</name>
  </metadata>
  <trk>
    <name><![CDATA[Tracé Equipe D du point E au point I-16182988]]></name>
    <trkseg>
      <trkpt lat="48.36228" lon="2.52543">
        <ele>74</ele>
        <time>2023-02-27T12:43:56Z</time>
      </trkpt>
      <trkpt lat="48.36275" lon="2.5258">
        <ele>74</ele>
        <time>2023-02-27T12:44:08Z</time>
      </trkpt>
      <trkpt lat="48.36296" lon="2.52602">
        <ele>74</ele>
        <time>2023-02-27T12:44:14Z</time>
      </trkpt>
      <trkpt lat="48.36348" lon="2.52649">
        <ele>74</ele>
        <time>2023-02-27T12:44:29Z</time>
      </trkpt>
      <trkpt lat="48.364" lon="2.52696">
        <ele>74</ele>
        <time>2023-02-27T12:44:43Z</time>
      </trkpt>
      <trkpt lat="48.36455" lon="2.52712">
        <ele>75</ele>
        <time>2023-02-27T12:44:56Z</time>
      </trkpt>
      <trkpt lat="48.36515" lon="2.52691">
        <ele>76</ele>
        <time>2023-02-27T12:45:10Z</time>
      </trkpt>
      <trkpt lat="48.36589" lon="2.5267">
        <ele>76</ele>
        <time>2023-02-27T12:45:28Z</time>
      </trkpt>
      <trkpt lat="48.3661" lon="2.52653">
        <ele>76</ele>
        <time>2023-02-27T12:45:33Z</time>
      </trkpt>
      <trkpt lat="48.3663" lon="2.52649">
        <ele>77</ele>
        <time>2023-02-27T12:45:38Z</time>
      </trkpt>
      <trkpt lat="48.36668" lon="2.52646">
        <ele>77</ele>
        <time>2023-02-27T12:45:47Z</time>
      </trkpt>
      <trkpt lat="48.36707" lon="2.52651">
        <ele>77</ele>
        <time>2023-02-27T12:45:56Z</time>
      </trkpt>
      <trkpt lat="48.36729" lon="2.52654">
        <ele>77</ele>
        <time>2023-02-27T12:46:01Z</time>
      </trkpt>
      <trkpt lat="48.36765" lon="2.52614">
        <ele>77</ele>
        <time>2023-02-27T12:46:12Z</time>
      </trkpt>
      <trkpt lat="48.36789" lon="2.52582">
        <ele>77</ele>
        <time>2023-02-27T12:46:19Z</time>
      </trkpt>
      <trkpt lat="48.36839" lon="2.52522">
        <ele>77</ele>
        <time>2023-02-27T12:46:34Z</time>
      </trkpt>
      <trkpt lat="48.36867" lon="2.52477">
        <ele>76</ele>
        <time>2023-02-27T12:46:44Z</time>
      </trkpt>
      <trkpt lat="48.36886" lon="2.5243">
        <ele>76</ele>
        <time>2023-02-27T12:46:52Z</time>
      </trkpt>
      <trkpt lat="48.36902" lon="2.52399">
        <ele>76</ele>
        <time>2023-02-27T12:46:58Z</time>
      </trkpt>
      <trkpt lat="48.36929" lon="2.52354">
        <ele>76</ele>
        <time>2023-02-27T12:47:08Z</time>
      </trkpt>
      <trkpt lat="48.36944" lon="2.52336">
        <ele>76</ele>
        <time>2023-02-27T12:47:12Z</time>
      </trkpt>
      <trkpt lat="48.36965" lon="2.52314">
        <ele>76</ele>
        <time>2023-02-27T12:47:18Z</time>
      </trkpt>
      <trkpt lat="48.36983" lon="2.52297">
        <ele>75</ele>
        <time>2023-02-27T12:47:23Z</time>
      </trkpt>
      <trkpt lat="48.3701" lon="2.52287">
        <ele>76</ele>
        <time>2023-02-27T12:47:30Z</time>
      </trkpt>
      <trkpt lat="48.37045" lon="2.52271">
        <ele>76</ele>
        <time>2023-02-27T12:47:38Z</time>
      </trkpt>
      <trkpt lat="48.37115" lon="2.52209">
        <ele>76</ele>
        <time>2023-02-27T12:47:57Z</time>
      </trkpt>
      <trkpt lat="48.37155" lon="2.52182">
        <ele>77</ele>
        <time>2023-02-27T12:48:07Z</time>
      </trkpt>
      <trkpt lat="48.37172" lon="2.52166">
        <ele>77</ele>
        <time>2023-02-27T12:48:12Z</time>
      </trkpt>
      <trkpt lat="48.37175" lon="2.5219">
        <ele>77</ele>
        <time>2023-02-27T12:48:16Z</time>
      </trkpt>
      <trkpt lat="48.37194" lon="2.52326">
        <ele>77</ele>
        <time>2023-02-27T12:48:37Z</time>
      </trkpt>
      <trkpt lat="48.37236" lon="2.52444">
        <ele>74</ele>
        <time>2023-02-27T12:48:58Z</time>
      </trkpt>
      <trkpt lat="48.37247" lon="2.52467">
        <ele>75</ele>
        <time>2023-02-27T12:49:03Z</time>
      </trkpt>
      <trkpt lat="48.37122" lon="2.52568">
        <ele>75</ele>
        <time>2023-02-27T12:49:36Z</time>
      </trkpt>
      <trkpt lat="48.37115" lon="2.52599">
        <ele>75</ele>
        <time>2023-02-27T12:49:41Z</time>
      </trkpt>
      <trkpt lat="48.37117" lon="2.52619">
        <ele>76</ele>
        <time>2023-02-27T12:49:44Z</time>
      </trkpt>
      <trkpt lat="48.37135" lon="2.52677">
        <ele>77</ele>
        <time>2023-02-27T12:49:54Z</time>
      </trkpt>
      <trkpt lat="48.37149" lon="2.52724">
        <ele>77</ele>
        <time>2023-02-27T12:50:02Z</time>
      </trkpt>
      <trkpt lat="48.37138" lon="2.52793">
        <ele>78</ele>
        <time>2023-02-27T12:50:13Z</time>
      </trkpt>
      <trkpt lat="48.37137" lon="2.52848">
        <ele>78</ele>
        <time>2023-02-27T12:50:21Z</time>
      </trkpt>
      <trkpt lat="48.37139" lon="2.52887">
        <ele>77</ele>
        <time>2023-02-27T12:50:27Z</time>
      </trkpt>
      <trkpt lat="48.3715" lon="2.52944">
        <ele>77</ele>
        <time>2023-02-27T12:50:37Z</time>
      </trkpt>
      <trkpt lat="48.37167" lon="2.52979">
        <ele>76</ele>
        <time>2023-02-27T12:50:43Z</time>
      </trkpt>
      <trkpt lat="48.37174" lon="2.53006">
        <ele>75</ele>
        <time>2023-02-27T12:50:48Z</time>
      </trkpt>
      <trkpt lat="48.3719" lon="2.53029">
        <ele>74</ele>
        <time>2023-02-27T12:50:53Z</time>
      </trkpt>
      <trkpt lat="48.37226" lon="2.53064">
        <ele>73</ele>
        <time>2023-02-27T12:51:03Z</time>
      </trkpt>
      <trkpt lat="48.37239" lon="2.53096">
        <ele>72</ele>
        <time>2023-02-27T12:51:09Z</time>
      </trkpt>
      <trkpt lat="48.37246" lon="2.53119">
        <ele>72</ele>
        <time>2023-02-27T12:51:13Z</time>
      </trkpt>
      <trkpt lat="48.37261" lon="2.53197">
        <ele>74</ele>
        <time>2023-02-27T12:51:25Z</time>
      </trkpt>
      <trkpt lat="48.37273" lon="2.53253">
        <ele>75</ele>
        <time>2023-02-27T12:51:34Z</time>
      </trkpt>
      <trkpt lat="48.3729" lon="2.53299">
        <ele>75</ele>
        <time>2023-02-27T12:51:43Z</time>
      </trkpt>
      <trkpt lat="48.37296" lon="2.53321">
        <ele>76</ele>
        <time>2023-02-27T12:51:46Z</time>
      </trkpt>
      <trkpt lat="48.37302" lon="2.53367">
        <ele>76</ele>
        <time>2023-02-27T12:51:54Z</time>
      </trkpt>
      <trkpt lat="48.37321" lon="2.53462">
        <ele>76</ele>
        <time>2023-02-27T12:52:09Z</time>
      </trkpt>
      <trkpt lat="48.37326" lon="2.53494">
        <ele>76</ele>
        <time>2023-02-27T12:52:14Z</time>
      </trkpt>
      <trkpt lat="48.37355" lon="2.53571">
        <ele>75</ele>
        <time>2023-02-27T12:52:28Z</time>
      </trkpt>
      <trkpt lat="48.37349" lon="2.53594">
        <ele>75</ele>
        <time>2023-02-27T12:52:32Z</time>
      </trkpt>
      <trkpt lat="48.37363" lon="2.53621">
        <ele>75</ele>
        <time>2023-02-27T12:52:37Z</time>
      </trkpt>
      <trkpt lat="48.37561" lon="2.53771">
        <ele>80</ele>
        <time>2023-02-27T12:53:29Z</time>
      </trkpt>
      <trkpt lat="48.37625" lon="2.53815">
        <ele>80</ele>
        <time>2023-02-27T12:53:45Z</time>
      </trkpt>
      <trkpt lat="48.37661" lon="2.53871">
        <ele>81</ele>
        <time>2023-02-27T12:53:57Z</time>
      </trkpt>
      <trkpt lat="48.37664" lon="2.53844">
        <ele>80</ele>
        <time>2023-02-27T12:54:02Z</time>
      </trkpt>
      <trkpt lat="48.37655" lon="2.53794">
        <ele>80</ele>
        <time>2023-02-27T12:54:10Z</time>
      </trkpt>
      <trkpt lat="48.37659" lon="2.53764">
        <ele>80</ele>
        <time>2023-02-27T12:54:14Z</time>
      </trkpt>
      <trkpt lat="48.37658" lon="2.53745">
        <ele>80</ele>
        <time>2023-02-27T12:54:17Z</time>
      </trkpt>
      <trkpt lat="48.37653" lon="2.53715">
        <ele>81</ele>
        <time>2023-02-27T12:54:22Z</time>
      </trkpt>
      <trkpt lat="48.37623" lon="2.53628">
        <ele>81</ele>
        <time>2023-02-27T12:54:37Z</time>
      </trkpt>
      <trkpt lat="48.37601" lon="2.53557">
        <ele>80</ele>
        <time>2023-02-27T12:54:49Z</time>
      </trkpt>
      <trkpt lat="48.37593" lon="2.5351">
        <ele>79</ele>
        <time>2023-02-27T12:54:57Z</time>
      </trkpt>
      <trkpt lat="48.37593" lon="2.53509">
        <ele>79</ele>
        <time>2023-02-27T12:54:57Z</time>
      </trkpt>
      <trkpt lat="48.3759" lon="2.53474">
        <ele>79</ele>
        <time>2023-02-27T12:55:03Z</time>
      </trkpt>
      <trkpt lat="48.37597" lon="2.53424">
        <ele>79</ele>
        <time>2023-02-27T12:55:10Z</time>
      </trkpt>
      <trkpt lat="48.37597" lon="2.5341">
        <ele>79</ele>
        <time>2023-02-27T12:55:13Z</time>
      </trkpt>
      <trkpt lat="48.37584" lon="2.53391">
        <ele>78</ele>
        <time>2023-02-27T12:55:17Z</time>
      </trkpt>
      <trkpt lat="48.37563" lon="2.53382">
        <ele>78</ele>
        <time>2023-02-27T12:55:22Z</time>
      </trkpt>
      <trkpt lat="48.37544" lon="2.53369">
        <ele>77</ele>
        <time>2023-02-27T12:55:27Z</time>
      </trkpt>
      <trkpt lat="48.37522" lon="2.53347">
        <ele>77</ele>
        <time>2023-02-27T12:55:33Z</time>
      </trkpt>
      <trkpt lat="48.37489" lon="2.53297">
        <ele>76</ele>
        <time>2023-02-27T12:55:44Z</time>
      </trkpt>
      <trkpt lat="48.37458" lon="2.53261">
        <ele>76</ele>
        <time>2023-02-27T12:55:53Z</time>
      </trkpt>
      <trkpt lat="48.37432" lon="2.53223">
        <ele>77</ele>
        <time>2023-02-27T12:56:02Z</time>
      </trkpt>
      <trkpt lat="48.37432" lon="2.53222">
        <ele>77</ele>
        <time>2023-02-27T12:56:02Z</time>
      </trkpt>
      <trkpt lat="48.37417" lon="2.53207">
        <ele>77</ele>
        <time>2023-02-27T12:56:06Z</time>
      </trkpt>
      <trkpt lat="48.37405" lon="2.53186">
        <ele>77</ele>
        <time>2023-02-27T12:56:10Z</time>
      </trkpt>
      <trkpt lat="48.37388" lon="2.5318">
        <ele>76</ele>
        <time>2023-02-27T12:56:14Z</time>
      </trkpt>
      <trkpt lat="48.37398" lon="2.53169">
        <ele>76</ele>
        <time>2023-02-27T12:56:17Z</time>
      </trkpt>
      <trkpt lat="48.37411" lon="2.53155">
        <ele>77</ele>
        <time>2023-02-27T12:56:21Z</time>
      </trkpt>
      <trkpt lat="48.37443" lon="2.53135">
        <ele>77</ele>
        <time>2023-02-27T12:56:29Z</time>
      </trkpt>
      <trkpt lat="48.37527" lon="2.53089">
        <ele>77</ele>
        <time>2023-02-27T12:56:50Z</time>
      </trkpt>
      <trkpt lat="48.37579" lon="2.53057">
        <ele>76</ele>
        <time>2023-02-27T12:57:03Z</time>
      </trkpt>
      <trkpt lat="48.37624" lon="2.53034">
        <ele>75</ele>
        <time>2023-02-27T12:57:14Z</time>
      </trkpt>
      <trkpt lat="48.37639" lon="2.53029">
        <ele>75</ele>
        <time>2023-02-27T12:57:18Z</time>
      </trkpt>
      <trkpt lat="48.37674" lon="2.53013">
        <ele>75</ele>
        <time>2023-02-27T12:57:26Z</time>
      </trkpt>
      <trkpt lat="48.37692" lon="2.52998">
        <ele>75</ele>
        <time>2023-02-27T12:57:31Z</time>
      </trkpt>
      <trkpt lat="48.37717" lon="2.5299">
        <ele>75</ele>
        <time>2023-02-27T12:57:37Z</time>
      </trkpt>
      <trkpt lat="48.37736" lon="2.53013">
        <ele>76</ele>
        <time>2023-02-27T12:57:43Z</time>
      </trkpt>
      <trkpt lat="48.37745" lon="2.53021">
        <ele>76</ele>
        <time>2023-02-27T12:57:45Z</time>
      </trkpt>
      <trkpt lat="48.37769" lon="2.53032">
        <ele>76</ele>
        <time>2023-02-27T12:57:51Z</time>
      </trkpt>
      <trkpt lat="48.37803" lon="2.53043">
        <ele>75</ele>
        <time>2023-02-27T12:57:59Z</time>
      </trkpt>
      <trkpt lat="48.37824" lon="2.5306">
        <ele>75</ele>
        <time>2023-02-27T12:58:05Z</time>
      </trkpt>
      <trkpt lat="48.37824" lon="2.53059">
        <ele>75</ele>
        <time>2023-02-27T12:58:05Z</time>
      </trkpt>
      <trkpt lat="48.37851" lon="2.53086">
        <ele>75</ele>
        <time>2023-02-27T12:58:12Z</time>
      </trkpt>
      <trkpt lat="48.37879" lon="2.53133">
        <ele>75</ele>
        <time>2023-02-27T12:58:22Z</time>
      </trkpt>
      <trkpt lat="48.37929" lon="2.53188">
        <ele>73</ele>
        <time>2023-02-27T12:58:37Z</time>
      </trkpt>
      <trkpt lat="48.37961" lon="2.53232">
        <ele>71</ele>
        <time>2023-02-27T12:58:47Z</time>
      </trkpt>
      <trkpt lat="48.37985" lon="2.53251">
        <ele>71</ele>
        <time>2023-02-27T12:58:53Z</time>
      </trkpt>
      <trkpt lat="48.38026" lon="2.53311">
        <ele>72</ele>
        <time>2023-02-27T12:59:06Z</time>
      </trkpt>
      <trkpt lat="48.3807" lon="2.53367">
        <ele>73</ele>
        <time>2023-02-27T12:59:20Z</time>
      </trkpt>
      <trkpt lat="48.38108" lon="2.5343">
        <ele>72</ele>
        <time>2023-02-27T12:59:33Z</time>
      </trkpt>
      <trkpt lat="48.38121" lon="2.5346">
        <ele>73</ele>
        <time>2023-02-27T12:59:39Z</time>
      </trkpt>
      <trkpt lat="48.38138" lon="2.53476">
        <ele>72</ele>
        <time>2023-02-27T12:59:43Z</time>
      </trkpt>
      <trkpt lat="48.38158" lon="2.53468">
        <ele>72</ele>
        <time>2023-02-27T12:59:48Z</time>
      </trkpt>
      <trkpt lat="48.38174" lon="2.5343">
        <ele>72</ele>
        <time>2023-02-27T12:59:55Z</time>
      </trkpt>
      <trkpt lat="48.38198" lon="2.53352">
        <ele>72</ele>
        <time>2023-02-27T13:00:09Z</time>
      </trkpt>
      <trkpt lat="48.38193" lon="2.53279">
        <ele>72</ele>
        <time>2023-02-27T13:00:20Z</time>
      </trkpt>
      <trkpt lat="48.38194" lon="2.53252">
        <ele>72</ele>
        <time>2023-02-27T13:00:24Z</time>
      </trkpt>
      <trkpt lat="48.38204" lon="2.53154">
        <ele>72</ele>
        <time>2023-02-27T13:00:39Z</time>
      </trkpt>
      <trkpt lat="48.38208" lon="2.53135">
        <ele>72</ele>
        <time>2023-02-27T13:00:43Z</time>
      </trkpt>
      <trkpt lat="48.38233" lon="2.53085">
        <ele>72</ele>
        <time>2023-02-27T13:00:52Z</time>
      </trkpt>
      <trkpt lat="48.38244" lon="2.53053">
        <ele>72</ele>
        <time>2023-02-27T13:00:58Z</time>
      </trkpt>
      <trkpt lat="48.38259" lon="2.53029">
        <ele>72</ele>
        <time>2023-02-27T13:01:03Z</time>
      </trkpt>
      <trkpt lat="48.38302" lon="2.5292">
        <ele>75</ele>
        <time>2023-02-27T13:01:23Z</time>
      </trkpt>
      <trkpt lat="48.38312" lon="2.5288">
        <ele>75</ele>
        <time>2023-02-27T13:01:29Z</time>
      </trkpt>
      <trkpt lat="48.38328" lon="2.52831">
        <ele>74</ele>
        <time>2023-02-27T13:01:38Z</time>
      </trkpt>
      <trkpt lat="48.38329" lon="2.52782">
        <ele>73</ele>
        <time>2023-02-27T13:01:45Z</time>
      </trkpt>
      <trkpt lat="48.38338" lon="2.52753">
        <ele>73</ele>
        <time>2023-02-27T13:01:50Z</time>
      </trkpt>
      <trkpt lat="48.38339" lon="2.52727">
        <ele>73</ele>
        <time>2023-02-27T13:01:54Z</time>
      </trkpt>
      <trkpt lat="48.38343" lon="2.52695">
        <ele>74</ele>
        <time>2023-02-27T13:01:59Z</time>
      </trkpt>
      <trkpt lat="48.38341" lon="2.52655">
        <ele>74</ele>
        <time>2023-02-27T13:02:06Z</time>
      </trkpt>
      <trkpt lat="48.38335" lon="2.52626">
        <ele>73</ele>
        <time>2023-02-27T13:02:10Z</time>
      </trkpt>
      <trkpt lat="48.38304" lon="2.52549">
        <ele>71</ele>
        <time>2023-02-27T13:02:24Z</time>
      </trkpt>
      <trkpt lat="48.38293" lon="2.52511">
        <ele>71</ele>
        <time>2023-02-27T13:02:31Z</time>
      </trkpt>
      <trkpt lat="48.38292" lon="2.52483">
        <ele>71</ele>
        <time>2023-02-27T13:02:35Z</time>
      </trkpt>
      <trkpt lat="48.38298" lon="2.52465">
        <ele>71</ele>
        <time>2023-02-27T13:02:38Z</time>
      </trkpt>
      <trkpt lat="48.38332" lon="2.52422">
        <ele>74</ele>
        <time>2023-02-27T13:02:49Z</time>
      </trkpt>
      <trkpt lat="48.38359" lon="2.52438">
        <ele>75</ele>
        <time>2023-02-27T13:02:55Z</time>
      </trkpt>
      <trkpt lat="48.38399" lon="2.52457">
        <ele>77</ele>
        <time>2023-02-27T13:03:05Z</time>
      </trkpt>
      <trkpt lat="48.38449" lon="2.52472">
        <ele>80</ele>
        <time>2023-02-27T13:03:17Z</time>
      </trkpt>
      <trkpt lat="48.38521" lon="2.52458">
        <ele>85</ele>
        <time>2023-02-27T13:03:34Z</time>
      </trkpt>
      <trkpt lat="48.38581" lon="2.5245">
        <ele>85</ele>
        <time>2023-02-27T13:03:48Z</time>
      </trkpt>
      <trkpt lat="48.38625" lon="2.5243">
        <ele>83</ele>
        <time>2023-02-27T13:03:59Z</time>
      </trkpt>
      <trkpt lat="48.38646" lon="2.52413">
        <ele>82</ele>
        <time>2023-02-27T13:04:04Z</time>
      </trkpt>
      <trkpt lat="48.38664" lon="2.5238">
        <ele>80</ele>
        <time>2023-02-27T13:04:11Z</time>
      </trkpt>
      <trkpt lat="48.38679" lon="2.52337">
        <ele>80</ele>
        <time>2023-02-27T13:04:19Z</time>
      </trkpt>
      <trkpt lat="48.38688" lon="2.52322">
        <ele>80</ele>
        <time>2023-02-27T13:04:22Z</time>
      </trkpt>
      <trkpt lat="48.38705" lon="2.52234">
        <ele>80</ele>
        <time>2023-02-27T13:04:36Z</time>
      </trkpt>
      <trkpt lat="48.38725" lon="2.52112">
        <ele>78</ele>
        <time>2023-02-27T13:04:55Z</time>
      </trkpt>
      <trkpt lat="48.3878" lon="2.51943">
        <ele>74</ele>
        <time>2023-02-27T13:05:25Z</time>
      </trkpt>
      <trkpt lat="48.38795" lon="2.51899">
        <ele>74</ele>
        <time>2023-02-27T13:05:32Z</time>
      </trkpt>
      <trkpt lat="48.38811" lon="2.51833">
        <ele>76</ele>
        <time>2023-02-27T13:05:43Z</time>
      </trkpt>
      <trkpt lat="48.38821" lon="2.51668">
        <ele>75</ele>
        <time>2023-02-27T13:06:09Z</time>
      </trkpt>
      <trkpt lat="48.38824" lon="2.51618">
        <ele>74</ele>
        <time>2023-02-27T13:06:17Z</time>
      </trkpt>
      <trkpt lat="48.38828" lon="2.51592">
        <ele>73</ele>
        <time>2023-02-27T13:06:21Z</time>
      </trkpt>
      <trkpt lat="48.38844" lon="2.5162">
        <ele>73</ele>
        <time>2023-02-27T13:06:26Z</time>
      </trkpt>
      <trkpt lat="48.38877" lon="2.51683">
        <ele>73</ele>
        <time>2023-02-27T13:06:39Z</time>
      </trkpt>
      <trkpt lat="48.38906" lon="2.51732">
        <ele>71</ele>
        <time>2023-02-27T13:06:49Z</time>
      </trkpt>
      <trkpt lat="48.3896" lon="2.51839">
        <ele>72</ele>
        <time>2023-02-27T13:07:10Z</time>
      </trkpt>
      <trkpt lat="48.3898" lon="2.51873">
        <ele>73</ele>
        <time>2023-02-27T13:07:17Z</time>
      </trkpt>
      <trkpt lat="48.39007" lon="2.51909">
        <ele>74</ele>
        <time>2023-02-27T13:07:25Z</time>
      </trkpt>
      <trkpt lat="48.39027" lon="2.51985">
        <ele>77</ele>
        <time>2023-02-27T13:07:38Z</time>
      </trkpt>
      <trkpt lat="48.3904" lon="2.52044">
        <ele>78</ele>
        <time>2023-02-27T13:07:48Z</time>
      </trkpt>
      <trkpt lat="48.39058" lon="2.52058">
        <ele>78</ele>
        <time>2023-02-27T13:07:52Z</time>
      </trkpt>
      <trkpt lat="48.39078" lon="2.52055">
        <ele>77</ele>
        <time>2023-02-27T13:07:57Z</time>
      </trkpt>
      <trkpt lat="48.39114" lon="2.52062">
        <ele>78</ele>
        <time>2023-02-27T13:08:06Z</time>
      </trkpt>
      <trkpt lat="48.39114" lon="2.52061">
        <ele>78</ele>
        <time>2023-02-27T13:08:06Z</time>
      </trkpt>
      <trkpt lat="48.39141" lon="2.52079">
        <ele>78</ele>
        <time>2023-02-27T13:08:13Z</time>
      </trkpt>
      <trkpt lat="48.3916" lon="2.52095">
        <ele>80</ele>
        <time>2023-02-27T13:08:18Z</time>
      </trkpt>
      <trkpt lat="48.39165" lon="2.5214">
        <ele>82</ele>
        <time>2023-02-27T13:08:25Z</time>
      </trkpt>
      <trkpt lat="48.39219" lon="2.5219">
        <ele>87</ele>
        <time>2023-02-27T13:08:40Z</time>
      </trkpt>
      <trkpt lat="48.39239" lon="2.52215">
        <ele>89</ele>
        <time>2023-02-27T13:08:46Z</time>
      </trkpt>
      <trkpt lat="48.39256" lon="2.52221">
        <ele>90</ele>
        <time>2023-02-27T13:08:50Z</time>
      </trkpt>
      <trkpt lat="48.39272" lon="2.52239">
        <ele>93</ele>
        <time>2023-02-27T13:08:54Z</time>
      </trkpt>
      <trkpt lat="48.39282" lon="2.5231">
        <ele>98</ele>
        <time>2023-02-27T13:09:06Z</time>
      </trkpt>
      <trkpt lat="48.39287" lon="2.52406">
        <ele>102</ele>
        <time>2023-02-27T13:09:21Z</time>
      </trkpt>
      <trkpt lat="48.39297" lon="2.5251">
        <ele>104</ele>
        <time>2023-02-27T13:09:37Z</time>
      </trkpt>
      <trkpt lat="48.39325" lon="2.52518">
        <ele>103</ele>
        <time>2023-02-27T13:09:44Z</time>
      </trkpt>
      <trkpt lat="48.39351" lon="2.5256">
        <ele>107</ele>
        <time>2023-02-27T13:09:52Z</time>
      </trkpt>
      <trkpt lat="48.39348" lon="2.52672">
        <ele>114</ele>
        <time>2023-02-27T13:10:10Z</time>
      </trkpt>
      <trkpt lat="48.39326" lon="2.52776">
        <ele>118</ele>
        <time>2023-02-27T13:10:27Z</time>
      </trkpt>
      <trkpt lat="48.39312" lon="2.52834">
        <ele>120</ele>
        <time>2023-02-27T13:10:36Z</time>
      </trkpt>
      <trkpt lat="48.39279" lon="2.52919">
        <ele>122</ele>
        <time>2023-02-27T13:10:52Z</time>
      </trkpt>
      <trkpt lat="48.39272" lon="2.52949">
        <ele>121</ele>
        <time>2023-02-27T13:10:57Z</time>
      </trkpt>
      <trkpt lat="48.39322" lon="2.52922">
        <ele>124</ele>
        <time>2023-02-27T13:11:09Z</time>
      </trkpt>
      <trkpt lat="48.39337" lon="2.52917">
        <ele>125</ele>
        <time>2023-02-27T13:11:13Z</time>
      </trkpt>
      <trkpt lat="48.39362" lon="2.52905">
        <ele>125</ele>
        <time>2023-02-27T13:11:19Z</time>
      </trkpt>
      <trkpt lat="48.39395" lon="2.5285">
        <ele>125</ele>
        <time>2023-02-27T13:11:30Z</time>
      </trkpt>
      <trkpt lat="48.39447" lon="2.52749">
        <ele>125</ele>
        <time>2023-02-27T13:11:50Z</time>
      </trkpt>
      <trkpt lat="48.39468" lon="2.52433">
        <ele>120</ele>
        <time>2023-02-27T13:12:39Z</time>
      </trkpt>
      <trkpt lat="48.39451" lon="2.52383">
        <ele>118</ele>
        <time>2023-02-27T13:12:48Z</time>
      </trkpt>
      <trkpt lat="48.39445" lon="2.52369">
        <ele>117</ele>
        <time>2023-02-27T13:12:51Z</time>
      </trkpt>
      <trkpt lat="48.39425" lon="2.52305">
        <ele>116</ele>
        <time>2023-02-27T13:13:01Z</time>
      </trkpt>
      <trkpt lat="48.39416" lon="2.52247">
        <ele>115</ele>
        <time>2023-02-27T13:13:11Z</time>
      </trkpt>
      <trkpt lat="48.39426" lon="2.52193">
        <ele>114</ele>
        <time>2023-02-27T13:13:19Z</time>
      </trkpt>
      <trkpt lat="48.39439" lon="2.52073">
        <ele>115</ele>
        <time>2023-02-27T13:13:38Z</time>
      </trkpt>
      <trkpt lat="48.39439" lon="2.52036">
        <ele>114</ele>
        <time>2023-02-27T13:13:44Z</time>
      </trkpt>
      <trkpt lat="48.39443" lon="2.52016">
        <ele>113</ele>
        <time>2023-02-27T13:13:47Z</time>
      </trkpt>
      <trkpt lat="48.39476" lon="2.51914">
        <ele>108</ele>
        <time>2023-02-27T13:14:05Z</time>
      </trkpt>
      <trkpt lat="48.39497" lon="2.51869">
        <ele>104</ele>
        <time>2023-02-27T13:14:13Z</time>
      </trkpt>
      <trkpt lat="48.39502" lon="2.51849">
        <ele>103</ele>
        <time>2023-02-27T13:14:17Z</time>
      </trkpt>
      <trkpt lat="48.39514" lon="2.51771">
        <ele>99</ele>
        <time>2023-02-27T13:14:29Z</time>
      </trkpt>
      <trkpt lat="48.3951" lon="2.5172">
        <ele>97</ele>
        <time>2023-02-27T13:14:37Z</time>
      </trkpt>
      <trkpt lat="48.39519" lon="2.51633">
        <ele>95</ele>
        <time>2023-02-27T13:14:51Z</time>
      </trkpt>
      <trkpt lat="48.3952" lon="2.51565">
        <ele>92</ele>
        <time>2023-02-27T13:15:01Z</time>
      </trkpt>
      <trkpt lat="48.39534" lon="2.51474">
        <ele>86</ele>
        <time>2023-02-27T13:15:16Z</time>
      </trkpt>
      <trkpt lat="48.39545" lon="2.5144">
        <ele>83</ele>
        <time>2023-02-27T13:15:22Z</time>
      </trkpt>
      <trkpt lat="48.39553" lon="2.51431">
        <ele>82</ele>
        <time>2023-02-27T13:15:24Z</time>
      </trkpt>
      <trkpt lat="48.39575" lon="2.5142">
        <ele>80</ele>
        <time>2023-02-27T13:15:29Z</time>
      </trkpt>
      <trkpt lat="48.39589" lon="2.51418">
        <ele>79</ele>
        <time>2023-02-27T13:15:33Z</time>
      </trkpt>
      <trkpt lat="48.39603" lon="2.51425">
        <ele>79</ele>
        <time>2023-02-27T13:15:36Z</time>
      </trkpt>
      <trkpt lat="48.39615" lon="2.51423">
        <ele>79</ele>
        <time>2023-02-27T13:15:39Z</time>
      </trkpt>
      <trkpt lat="48.39663" lon="2.51366">
        <ele>79</ele>
        <time>2023-02-27T13:15:53Z</time>
      </trkpt>
      <trkpt lat="48.39693" lon="2.51229">
        <ele>79</ele>
        <time>2023-02-27T13:16:16Z</time>
      </trkpt>
      <trkpt lat="48.39711" lon="2.51181">
        <ele>78</ele>
        <time>2023-02-27T13:16:24Z</time>
      </trkpt>
      <trkpt lat="48.39763" lon="2.51261">
        <ele>78</ele>
        <time>2023-02-27T13:16:41Z</time>
      </trkpt>
      <trkpt lat="48.39837" lon="2.5136">
        <ele>78</ele>
        <time>2023-02-27T13:17:05Z</time>
      </trkpt>
      <trkpt lat="48.39878" lon="2.51465">
        <ele>81</ele>
        <time>2023-02-27T13:17:23Z</time>
      </trkpt>
      <trkpt lat="48.39961" lon="2.51686">
        <ele>76</ele>
        <time>2023-02-27T13:18:03Z</time>
      </trkpt>
    </trkseg>
  </trk>
</gpx>